x

New London Ledge Ct - Ledge Light Weather Station (ldlc3) Weather Station

2:45pm - Fri 19th Dec 2014 All times are EST. -5 hours from GMT.

  • Wind
    17mph, 21mph gusts
  • Air Temp 37°f
  • Sea Pressure 1014.4mb
  • New London Ledge Ct - Ledge Light Weather Station
  • New London Ledge Ct - Ledge Light Weather Station

More Historic Weather Station data

Upgrade to MSW Pro to gain access to the past 30 days of data for over 8000 Wavebouys and Weather Stations around the globe.

Join Pro

Comparision Forecast

View Surf forecast
   
Fri 12/19 2:45pm 17 21 mph 1014.4mb 37f
2:30pm 16 20 mph 1014.3mb 37f
2:15pm 16 21 mph 1014.1mb 37f
2:00pm 17 23 mph 1013.9mb 37f
1:45pm 20 24 mph 1013.9mb 37f
1:30pm 15 18 mph 1014mb 37f
1:15pm 16 21 mph 1013.7mb 37f
1:00pm 17 23 mph 1013.6mb 37f
12:45pm 15 18 mph 1013.6mb 38f
12:30pm 15 18 mph 1013.7mb 38f
12:15pm 16 22 mph 1013.7mb 39f
12:00pm 18 22 mph 1013.6mb 39f
11:45am 18 24 mph 1013.7mb 38f
11:30am 16 20 mph 1013.9mb 38f
11:15am 15 17 mph 1014.1mb 37f
11:00am 16 20 mph 1014.2mb 37f
10:45am 16 21 mph 1014.5mb 37f
10:30am 16 18 mph 1014.6mb 37f
10:15am 18 25 mph 1014.6mb 37f
10:00am 16 20 mph 1014.6mb 36f
9:45am 16 21 mph 1014.6mb 36f
9:30am 15 21 mph 1014.4mb 36f
9:15am 17 22 mph 1014.1mb 35f
9:00am 17 23 mph 1014.2mb 36f
8:45am 20 23 mph 1014.2mb 35f
8:30am 11 15 mph 1014.3mb 35f
8:15am 13 15 mph 1014.1mb 36f
8:00am 14 20 mph 1013.8mb 35f
7:45am 14 16 mph 1013.7mb 35f
7:30am 15 21 mph 1013.6mb 35f
7:15am 14 18 mph 1013.7mb 35f
7:00am 15 21 mph 1013.6mb 35f
6:45am 20 25 mph 1013.2mb 36f
6:30am 20 25 mph 1013.1mb 36f
6:15am 16 20 mph 1013mb 36f
6:00am 16 20 mph 1012.9mb 36f
5:45am 15 21 mph 1012.6mb 36f
5:30am 11 14 mph 1012.6mb 36f
5:15am 13 16 mph 1012.3mb 36f
5:00am 16 21 mph 1012.1mb 36f
4:45am 16 21 mph 1012mb 36f
4:30am 15 18 mph 1011.9mb 36f
4:15am 15 18 mph 1011.9mb 36f
4:00am 17 23 mph 1011.9mb 37f
3:45am 16 20 mph 1012mb 37f
3:30am 16 22 mph 1012mb 37f
3:15am 11 16 mph 1012.1mb 37f
3:00am 14 17 mph 1012mb 37f
2:45am 13 15 mph 1012mb 37f
2:30am 13 16 mph 1012mb 37f
2:15am 10 13 mph 1012.1mb 36f
2:00am 11 15 mph 1012mb 36f
1:45am 11 13 mph 1012mb 36f
1:30am 6 7 mph 1012mb 36f
1:15am 7 8 mph 1012mb 36f
1:00am 7 9 mph 1012mb 36f
12:45am 8 10 mph 1012.1mb 37f
12:30am 8 10 mph 1012mb 37f
12:15am 14 17 mph 1012.1mb 37f
12:00am 11 15 mph 1012.4mb 37f
Thu 12/18 6:45pm 10 14 mph 1011.7mb 39f
6:30pm 11 14 mph 1011.8mb 39f
6:15pm 10 14 mph 1011.8mb 40f
6:00pm 14 21 mph 1011.5mb 40f
5:45pm 14 16 mph 1011.5mb 40f
5:30pm 13 16 mph 1011.6mb 40f
5:15pm 10 15 mph 1011.4mb 40f
5:00pm 10 14 mph 1011.2mb 40f
4:45pm 16 18 mph 1011mb 40f
4:30pm 18 24 mph 1010.7mb 40f
4:15pm 17 25 mph 1010.7mb 40f
4:00pm 20 24 mph 1010.5mb 41f
3:45pm 20 29 mph 1010.3mb 41f
3:30pm 20 26 mph 1010.1mb 41f
3:15pm 23 29 mph 1009.9mb 41f
3:00pm 18 23 mph 1010mb 41f
2:45pm 21 28 mph 1009.9mb 41f
2:30pm 22 30 mph 1009.8mb 41f
2:15pm 18 26 mph 1009.8mb 41f
2:00pm 26 32 mph 1009.6mb 41f
1:45pm 23 28 mph 1009.4mb 40f
1:30pm 22 34 mph 1009.6mb 40f
1:15pm 22 28 mph 1009.5mb 40f
1:00pm 26 32 mph 1009.5mb 40f
12:45pm 24 31 mph 1009.7mb 40f
12:30pm 22 28 mph 1009.9mb 40f
12:15pm 21 28 mph 1010mb 40f
12:00pm 26 33 mph 1010mb 40f
11:45am 23 28 mph 1010.2mb 40f
11:30am 26 32 mph 1010.3mb 40f
11:15am 24 31 mph 1010.4mb 40f
11:00am 26 36 mph 1010.7mb 40f
10:45am 24 32 mph 1010.8mb 40f
10:30am 21 30 mph 1010.9mb 40f
10:15am 23 30 mph 1011mb 40f
10:00am 23 32 mph 1010.7mb 40f
9:45am 22 30 mph 1010.6mb 40f
9:30am 21 31 mph 1010.5mb 39f
9:15am 23 29 mph 1010.2mb 39f
9:00am 24 34 mph 1010mb 39f
8:45am 25 36 mph 1009.9mb 39f
8:30am 24 31 mph 1009.9mb 38f
8:15am 21 28 mph 1009.8mb 38f
8:00am 18 23 mph 1009.8mb 38f
7:45am 15 18 mph 1009.7mb 37f
7:30am 15 21 mph 1009.6mb 37f
7:15am 21 26 mph 1009.2mb 37f
7:00am 20 24 mph 1009.3mb 38f
6:45am 15 21 mph 1009.5mb 38f
6:30am 22 29 mph 1009.1mb 39f
6:15am 23 30 mph 1008.8mb 39f
6:00am 17 25 mph 1009.1mb 39f
5:45am 21 25 mph 1008.6mb 40f
5:30am 22 26 mph 1008.4mb 40f
5:15am 18 23 mph 1008.5mb 40f
5:00am 21 31 mph 1008.2mb 40f
4:45am 20 26 mph 1008.2mb 40f
4:30am 20 23 mph 1008.2mb 40f
4:15am 24 32 mph 1007.9mb 40f
4:00am 22 28 mph 1007.9mb 40f
3:45am 22 26 mph 1007.9mb 40f
3:30am 22 26 mph 1008mb 40f
3:15am 21 24 mph 1008mb 40f
3:00am 20 22 mph 1008mb 40f
2:45am 16 22 mph 1008mb 40f
2:30am 15 18 mph 1008mb 40f
2:15am 17 24 mph 1007.8mb 40f
2:00am 17 22 mph 1007.9mb 40f
1:45am 17 20 mph 1007.9mb 40f
1:30am 17 21 mph 1007.8mb 40f
1:15am 18 21 mph 1007.8mb 40f
1:00am 17 21 mph 1007.9mb 40f
12:45am 18 22 mph 1007.9mb 40f
12:30am 14 20 mph 1008.2mb 40f
12:15am 15 17 mph 1008.4mb 41f
12:00am 13 16 mph 1008.5mb 41f
Wed 12/17 6:45pm 14 16 mph 1008.1mb 47f
6:30pm 14 16 mph 1008mb 47f
6:15pm 10 14 mph 1008mb 47f
6:00pm 14 17 mph 1008mb 48f
5:45pm 16 20 mph 1008mb 49f
5:30pm 14 16 mph 1007.9mb 49f
5:15pm 17 23 mph 1007.6mb 49f
5:00pm 15 20 mph 1007.5mb 49f
4:45pm 15 18 mph 1007.4mb 49f
4:30pm 14 18 mph 1007.4mb 49f
4:15pm 11 16 mph 1007.2mb 50f
4:00pm 14 17 mph 1006.9mb 50f
3:45pm 15 20 mph 1006.8mb 50f
3:30pm 15 17 mph 1006.7mb 51f
3:15pm 17 21 mph 1006.4mb 51f
3:00pm 16 22 mph 1006.2mb 51f
2:45pm 17 23 mph 1006.1mb 51f
2:30pm 17 23 mph 1005.9mb 51f
2:15pm 16 21 mph 1006mb 51f
2:00pm 15 20 mph 1006mb 51f
1:45pm 15 17 mph 1006mb 51f
1:30pm 21 25 mph 1006mb 50f
1:15pm 13 17 mph 1006.2mb 51f
1:00pm 18 24 mph 1006.2mb 51f
12:45pm 11 16 mph 1006.3mb 50f
12:30pm 16 21 mph 1006.2mb 48f
12:15pm 18 21 mph 1006.2mb 47f
12:00pm 20 22 mph 1006.4mb 46f
11:45am 17 20 mph 1006.7mb 47f
11:30am 10 16 mph 1007mb 49f
11:15am 13 16 mph 1007.2mb 49f
11:00am 16 21 mph 1007.4mb 48f
10:45am 15 20 mph 1007.4mb 47f
10:30am 14 20 mph 1007.4mb 47f
10:15am 15 20 mph 1007.4mb 47f
10:00am 10 15 mph 1008.2mb 47f
9:45am 10 14 mph 1008.2mb 46f
9:30am 13 15 mph 1008.2mb 44f
9:15am 10 11 mph 1008.2mb 43f
9:00am 13 15 mph 1008mb 43f
8:45am 9 11 mph 1008mb 43f
8:30am 11 14 mph 1007.6mb 43f
8:15am 9 11 mph 1007.7mb 43f
8:00am 9 11 mph 1007.7mb 43f
7:45am 9 11 mph 1007.5mb 43f
7:30am 11 13 mph 1007.4mb 43f
7:15am 13 15 mph 1007.4mb 43f
7:00am 13 15 mph 1007.4mb 43f
6:45am 14
mph
1007.3mb 43f
6:30am 13 15 mph 1007.4mb 43f
6:15am 14 15 mph 1007.4mb 43f
6:00am 14 16 mph 1007.5mb 43f
5:45am 13 15 mph 1007.6mb 43f
5:30am 11 13 mph 1007.6mb 43f
5:15am 10 11 mph 1007.6mb 43f
5:00am 11 14 mph 1007.6mb 43f
4:45am 14 16 mph 1007.4mb 43f
4:30am 14 16 mph 1007.4mb 42f
4:15am 16 17 mph 1007.2mb 42f
4:00am 17 18 mph 1007.4mb 42f
3:45am 17 18 mph 1007mb 42f
3:30am 16 17 mph 1007.3mb 42f
3:15am 13 15 mph 1007.5mb 42f
3:00am 17 20 mph 1007.9mb 42f
2:45am 15 16 mph 1008.4mb 42f
2:30am 15 17 mph 1008mb 43f
2:15am 11 13 mph 1008.1mb 43f
2:00am 13 14 mph 1008mb 43f
1:45am 15 16 mph 1008mb 43f
1:30am 16 17 mph 1008.4mb 42f
1:15am 14 15 mph 1009mb 42f
1:00am 13 15 mph 1009.2mb 43f
12:45am 11 13 mph 1009.5mb 43f
12:30am 11 13 mph 1009.8mb 43f
12:15am 10 13 mph 1010.3mb 43f
12:00am 14 15 mph 1010.9mb 42f
Tue 12/16 6:45pm 16 20 mph 1014mb 45f
6:30pm 18 22 mph 1013.7mb 45f
6:15pm 16 20 mph 1014.1mb 44f
6:00pm 11 14 mph 1014.7mb 44f
5:45pm 10 11 mph 1014.8mb 44f
5:30pm 9 11 mph 1015.1mb 44f
5:15pm 9 11 mph 1015.2mb 44f
5:00pm 9 10 mph 1015.4mb 44f
4:45pm 8 9 mph 1015.7mb 44f
4:30pm 9 10 mph 1015.9mb 44f
4:15pm 10 11 mph 1015.7mb 44f
4:00pm 8 10 mph 1015.9mb 44f
3:45pm 9 10 mph 1016mb 44f
3:30pm 7 8 mph 1016.4mb 44f
3:15pm 7 8 mph 1016.5mb 44f
3:00pm 8 9 mph 1016.5mb 44f
2:45pm 8 9 mph 1016.3mb 44f
2:30pm 9 10 mph 1016.2mb 43f
2:15pm 9 10 mph 1016.3mb 43f
2:00pm 7 9 mph 1016.5mb 43f
1:45pm 6 8 mph 1016.7mb 42f
1:30pm 6 7 mph 1016.7mb 41f
1:15pm 8 9 mph 1016.7mb 40f
1:00pm 10 11 mph 1016.7mb 40f
12:45pm 10 11 mph 1017.1mb 40f
12:30pm 10 11 mph 1017.3mb 39f
12:15pm 6 9 mph 1017.6mb 41f
12:00pm 7 8 mph 1017.7mb 40f
11:45am 9 11 mph 1018mb 39f
11:30am 8 9 mph 1018.5mb 39f
11:15am 9 11 mph 1018.5mb 38f
11:00am 9 10 mph 1018.8mb 38f
10:45am 9 10 mph 1018.9mb 38f
10:30am 7 9 mph 1018.9mb 39f
10:15am 6 7 mph 1018.9mb 39f
10:00am 5 6 mph 1019.1mb 39f
9:45am 8 9 mph 1019.6mb 37f
9:30am 8 10 mph 1020mb 37f
9:15am 10 11 mph 1020mb 37f
9:00am 10 11 mph 1019.7mb 37f
8:45am 8 9 mph 1019.6mb 37f
8:30am 9 11 mph 1019.6mb 37f
8:15am 10 11 mph 1019.6mb 37f
8:00am 10 11 mph 1019.4mb 37f
7:45am 9 10 mph 1019.3mb 37f
7:30am 7 8 mph 1019.5mb 37f
7:15am 3 5 mph 1019.5mb 37f
7:00am 3 6 mph 1019.4mb 37f
6:45am 7
mph
1019.4mb 36f
6:30am 8 10 mph 1019.5mb 36f
6:15am 9 10 mph 1019.4mb 36f
6:00am 8 9 mph 1019.2mb 36f
5:45am 8 10 mph 1019mb 36f
5:30am 9 10 mph 1019.1mb 36f
5:15am 9 10 mph 1019.3mb 35f
5:00am 9 11 mph 1019.1mb 35f
4:45am 9 10 mph 1018.9mb 36f
4:30am 9 10 mph 1018.7mb 36f
4:15am 8 9 mph 1018.8mb 36f
4:00am 8 9 mph 1018.9mb 36f
3:45am 8 9 mph 1019mb 36f
3:30am 8 9 mph 1019.4mb 35f
3:15am 9 10 mph 1019.4mb 35f
3:00am 8 9 mph 1019.6mb 35f
2:45am 8 9 mph 1019.6mb 35f
2:30am 9 10 mph 1019.6mb 36f
2:15am 9 10 mph 1019.6mb 35f
2:00am 10
mph
1019.7mb 35f
1:45am 8 9 mph 1019.7mb 35f
1:30am 8 9 mph 1019.6mb 35f
1:15am 7 8 mph 1019.6mb 35f
1:00am 8 10 mph 1019.6mb 35f
12:45am 8 9 mph 1019.6mb 35f
12:30am 7 8 mph 1019.5mb 35f
12:15am 7 8 mph 1019.3mb 35f
12:00am 9 10 mph 1019.6mb 35f